Time;durP1;ratioP1;P1;durP2;ratioP2;P2;SDS_P1;SDS_P2;PMS_P1;PMS_P2;Temp;Humidity;BMP_temperature;BMP_pressure;BME280_temperature;BME280_humidity;BME280_pressure;Samples;Min_cycle;Max_cycle;Signal;HPM_P1;HPM_P2
2022/06/05 00:02:37;;;;;;;0.80;0.70;;;19.30;99.90;;;;;;5075002;28;20166;-73
2022/06/05 00:05:20;;;;;;;0.80;0.50;;;19.20;99.90;;;;;;5073509;28;20538;-71
2022/06/05 00:07:53;;;;;;;0.80;0.70;;;19.20;99.90;;;;;;5074904;28;20440;-74
2022/06/05 00:10:26;;;;;;;2.50;0.60;;;19.20;99.90;;;;;;5073496;28;20446;-71
2022/06/05 00:13:13;;;;;;;1.00;0.70;;;19.10;99.90;;;;;;5073458;28;20420;-72
2022/06/05 00:15:38;;;;;;;0.90;0.60;;;19.10;99.90;;;;;;5074799;28;20456;-72
2022/06/05 00:18:04;;;;;;;0.80;0.50;;;19.00;99.90;;;;;;5074595;28;20408;-72
2022/06/05 00:20:31;;;;;;;0.80;0.60;;;19.00;99.90;;;;;;5074617;28;20166;-72
2022/06/05 00:22:57;;;;;;;0.87;0.70;;;19.00;99.90;;;;;;5093456;28;20411;-71
2022/06/05 00:25:32;;;;;;;0.87;0.67;;;19.00;99.90;;;;;;5083581;28;20436;-71
2022/06/05 00:28:03;;;;;;;1.00;0.67;;;19.00;99.90;;;;;;5074445;28;20893;-71
2022/06/05 00:30:57;;;;;;;0.80;0.60;;;18.90;99.90;;;;;;5073167;28;20406;-72
2022/06/05 00:33:36;;;;;;;0.90;0.70;;;19.00;99.90;;;;;;5074439;28;20400;-72
2022/06/05 00:36:07;;;;;;;1.10;0.90;;;19.00;99.90;;;;;;5074172;28;20452;-71
2022/06/05 00:38:54;;;;;;;0.80;0.70;;;19.00;99.90;;;;;;5074248;28;20449;-72
2022/06/05 00:41:28;;;;;;;1.40;1.10;;;19.00;99.90;;;;;;5074289;28;20428;-73
2022/06/05 00:43:59;;;;;;;0.90;0.80;;;18.90;99.90;;;;;;5077971;28;20407;-72
2022/06/05 00:46:26;;;;;;;1.33;1.23;;;18.90;99.90;;;;;;5079209;28;20527;-72
2022/06/05 00:48:52;;;;;;;1.00;0.90;;;19.00;99.90;;;;;;5088652;28;20423;-71
2022/06/05 00:51:18;;;;;;;1.10;0.97;;;18.90;99.90;;;;;;5093005;28;21008;-71
2022/06/05 00:53:44;;;;;;;1.50;1.30;;;19.00;99.90;;;;;;5093670;28;20549;-71
2022/06/05 00:56:11;;;;;;;2.03;1.50;;;19.00;99.90;;;;;;5093983;28;20852;-71
2022/06/05 00:58:37;;;;;;;1.00;0.87;;;19.00;99.90;;;;;;5094210;28;20166;-71
2022/06/05 01:01:04;;;;;;;1.50;1.33;;;19.10;99.90;;;;;;5094078;28;20426;-71
2022/06/05 01:03:30;;;;;;;1.00;0.90;;;19.10;99.90;;;;;;5092801;28;20511;-73
2022/06/05 01:05:56;;;;;;;1.57;1.30;;;19.10;99.90;;;;;;5093785;28;20415;-71
2022/06/05 01:08:22;;;;;;;1.27;1.17;;;19.10;99.90;;;;;;5093977;28;21002;-74
2022/06/05 01:11:06;;;;;;;1.23;1.13;;;19.10;99.90;;;;;;5093893;28;20172;-75
2022/06/05 01:14:00;;;;;;;2.13;1.93;;;19.10;99.90;;;;;;5093900;28;20166;-70
2022/06/05 01:16:30;;;;;;;1.63;1.53;;;19.00;99.90;;;;;;5093638;28;20864;-70
2022/06/05 01:19:29;;;;;;;1.10;0.90;;;19.00;99.90;;;;;;5093660;28;20437;-72
2022/06/05 01:22:05;;;;;;;2.30;2.10;;;19.00;99.90;;;;;;5093673;28;20423;-71
2022/06/05 01:25:01;;;;;;;0.90;0.80;;;19.00;99.90;;;;;;5092832;28;20376;-70
2022/06/05 01:27:31;;;;;;;1.50;1.27;;;19.00;99.90;;;;;;5081343;28;20454;-71
2022/06/05 01:30:08;;;;;;;1.17;1.07;;;18.90;99.90;;;;;;5073290;28;20488;-71
2022/06/05 01:32:40;;;;;;;1.47;1.00;;;18.90;99.90;;;;;;5073286;28;20417;-70
2022/06/05 01:35:17;;;;;;;1.50;1.40;;;18.90;99.90;;;;;;5073011;28;20501;-71
2022/06/05 01:37:49;;;;;;;1.23;1.13;;;18.90;99.90;;;;;;5073095;28;20412;-72
2022/06/05 01:40:22;;;;;;;0.90;0.80;;;18.90;99.90;;;;;;5073118;28;20397;-71
2022/06/05 01:42:52;;;;;;;1.00;0.90;;;18.80;99.90;;;;;;5073049;28;20396;-70
2022/06/05 01:45:23;;;;;;;1.00;0.90;;;18.80;99.90;;;;;;5072772;28;20428;-70
2022/06/05 01:47:53;;;;;;;0.90;0.70;;;18.80;99.90;;;;;;5072955;28;20401;-71
2022/06/05 01:50:21;;;;;;;1.13;0.93;;;18.80;99.90;;;;;;5072836;28;20412;-73
2022/06/05 01:52:52;;;;;;;1.10;0.90;;;18.80;99.90;;;;;;5072766;28;20491;-70
2022/06/05 01:55:33;;;;;;;1.53;1.43;;;18.80;99.90;;;;;;5071210;28;20875;-70
2022/06/05 01:58:05;;;;;;;1.30;1.10;;;18.70;99.90;;;;;;5071658;28;20468;-70
2022/06/05 02:00:31;;;;;;;1.00;0.80;;;18.70;99.90;;;;;;5072710;28;20405;-72
2022/06/05 02:03:03;;;;;;;1.00;0.90;;;18.70;99.90;;;;;;5072564;28;20458;-74
2022/06/05 02:05:40;;;;;;;1.10;1.00;;;18.70;99.90;;;;;;5071901;28;20193;-74
2022/06/05 02:08:19;;;;;;;1.20;1.10;;;18.70;99.90;;;;;;5072535;28;20389;-73
2022/06/05 02:11:02;;;;;;;1.30;1.20;;;18.70;99.90;;;;;;5072616;28;20381;-70
2022/06/05 02:13:28;;;;;;;1.40;1.30;;;18.70;99.90;;;;;;5072522;28;20860;-74
2022/06/05 02:15:54;;;;;;;1.20;1.10;;;18.70;99.90;;;;;;5072099;28;20491;-72
2022/06/05 02:18:20;;;;;;;1.23;1.00;;;18.70;99.90;;;;;;5072392;28;20401;-72
2022/06/05 02:20:46;;;;;;;1.70;1.27;;;18.70;99.90;;;;;;5081707;28;20448;-71
2022/06/05 02:23:16;;;;;;;1.20;1.10;;;18.70;99.90;;;;;;5092514;28;20490;-71
2022/06/05 02:25:42;;;;;;;1.20;1.10;;;18.70;99.90;;;;;;5081695;28;20525;-73
2022/06/05 02:28:13;;;;;;;1.87;1.50;;;18.70;99.90;;;;;;5072249;28;20455;-73
2022/06/05 02:30:58;;;;;;;1.20;1.00;;;18.60;99.90;;;;;;5072289;28;20475;-71
2022/06/05 02:33:33;;;;;;;1.33;1.00;;;18.60;99.90;;;;;;5072161;28;20404;-74
2022/06/05 02:36:22;;;;;;;1.60;1.27;;;18.60;99.90;;;;;;5089790;28;20540;-71
2022/06/05 02:39:04;;;;;;;1.03;0.90;;;18.60;99.90;;;;;;5092393;28;20395;-70
2022/06/05 02:41:52;;;;;;;1.00;0.90;;;18.50;99.90;;;;;;5092642;28;21125;-71
2022/06/05 02:44:54;;;;;;;2.67;1.20;;;18.50;99.90;;;;;;5092232;28;20445;-70
2022/06/05 02:48:01;;;;;;;1.00;0.80;;;18.50;99.90;;;;;;5072086;28;20509;-72
2022/06/05 02:50:44;;;;;;;0.87;0.70;;;18.50;99.90;;;;;;5070711;28;20400;-71
2022/06/05 02:53:11;;;;;;;0.80;0.73;;;18.40;99.90;;;;;;5071867;28;20549;-72
2022/06/05 02:55:37;;;;;;;0.90;0.80;;;18.40;99.90;;;;;;5071564;28;20482;-73
2022/06/05 02:58:03;;;;;;;0.80;0.70;;;18.40;99.90;;;;;;5072194;28;20501;-73
2022/06/05 03:00:32;;;;;;;0.90;0.80;;;18.40;99.90;;;;;;5072022;28;20451;-75
2022/06/05 03:05:42;;;;;;;0.80;0.60;;;18.40;99.90;;;;;;5071839;28;20793;-71
2022/06/05 03:08:10;;;;;;;1.20;1.00;;;18.30;99.90;;;;;;5071843;28;20409;-71
2022/06/05 03:10:36;;;;;;;1.43;1.23;;;18.30;99.90;;;;;;5071792;28;20197;-71
2022/06/05 03:13:02;;;;;;;0.80;0.60;;;18.30;99.90;;;;;;5071772;28;20412;-71
2022/06/05 03:15:31;;;;;;;0.90;0.73;;;18.30;99.90;;;;;;5078069;28;20456;-70
2022/06/05 03:17:57;;;;;;;1.20;1.10;;;18.30;99.90;;;;;;5094063;28;20165;-75
2022/06/05 03:20:24;;;;;;;1.23;0.90;;;18.30;99.90;;;;;;5095934;28;20529;-70
2022/06/05 03:22:49;;;;;;;1.03;0.90;;;18.20;99.90;;;;;;5096052;28;20165;-74
2022/06/05 03:25:18;;;;;;;0.80;0.50;;;18.20;99.90;;;;;;5095597;28;20431;-70
2022/06/05 03:27:44;;;;;;;0.90;0.80;;;18.20;99.90;;;;;;5095827;28;20176;-73
2022/06/05 03:30:10;;;;;;;0.90;0.77;;;18.20;99.90;;;;;;5095846;28;20403;-73
2022/06/05 03:32:35;;;;;;;1.33;1.23;;;18.20;99.90;;;;;;5095774;28;20196;-74
2022/06/05 03:35:01;;;;;;;1.10;0.97;;;18.20;99.90;;;;;;5095027;28;20901;-71
2022/06/05 03:37:27;;;;;;;0.93;0.60;;;18.20;99.90;;;;;;5095697;28;20512;-70
2022/06/05 03:39:53;;;;;;;1.33;0.80;;;18.20;99.90;;;;;;5095686;28;20201;-71
2022/06/05 03:42:19;;;;;;;1.37;0.70;;;18.20;99.90;;;;;;5094504;28;20666;-71
2022/06/05 03:44:44;;;;;;;0.90;0.70;;;18.20;99.90;;;;;;5082120;28;20170;-75
2022/06/05 03:47:12;;;;;;;1.00;0.90;;;18.20;99.90;;;;;;5094227;28;20437;-73
2022/06/05 03:49:38;;;;;;;0.80;0.60;;;18.30;99.90;;;;;;5095506;28;20161;-70
2022/06/05 03:52:05;;;;;;;0.80;0.60;;;18.30;99.90;;;;;;5095435;28;20414;-71
2022/06/05 03:54:33;;;;;;;0.93;0.83;;;18.30;99.90;;;;;;5094831;28;20185;-71
2022/06/05 03:56:59;;;;;;;1.00;0.80;;;18.30;99.90;;;;;;5080439;28;20999;-72
2022/06/05 03:59:24;;;;;;;1.53;0.87;;;18.30;99.90;;;;;;5074997;28;20483;-71
2022/06/05 04:01:50;;;;;;;1.20;1.00;;;18.40;99.90;;;;;;5074955;28;20396;-74
2022/06/05 04:04:16;;;;;;;0.90;0.73;;;18.40;99.90;;;;;;5079513;28;20178;-71
2022/06/05 04:06:41;;;;;;;0.80;0.53;;;18.40;99.90;;;;;;5095069;28;20567;-71
2022/06/05 04:09:08;;;;;;;1.40;0.90;;;18.40;99.90;;;;;;5094232;28;20173;-72
2022/06/05 04:11:35;;;;;;;0.80;0.60;;;18.50;99.90;;;;;;5074795;28;20241;-71
2022/06/05 04:14:02;;;;;;;0.93;0.83;;;18.50;99.90;;;;;;5073352;28;20429;-74
2022/06/05 04:16:30;;;;;;;0.80;0.73;;;18.50;99.90;;;;;;5074389;28;20821;-72
2022/06/05 04:18:58;;;;;;;0.73;0.60;;;18.60;99.90;;;;;;5074600;28;20404;-72
2022/06/05 04:21:25;;;;;;;1.40;1.00;;;18.60;99.90;;;;;;5074566;28;20488;-71
2022/06/05 04:23:52;;;;;;;1.30;1.10;;;18.70;99.90;;;;;;5074559;28;20491;-73
2022/06/05 04:26:21;;;;;;;1.63;1.10;;;18.70;99.90;;;;;;5074166;28;20435;-72
2022/06/05 04:28:47;;;;;;;2.20;2.00;;;18.80;99.90;;;;;;5073648;28;20408;-71
2022/06/05 04:31:18;;;;;;;1.43;1.33;;;18.80;99.90;;;;;;5074463;28;20473;-72
2022/06/05 04:33:44;;;;;;;1.47;1.37;;;18.90;99.90;;;;;;5074315;28;20166;-71
2022/06/05 04:36:09;;;;;;;1.83;1.17;;;18.90;99.90;;;;;;5073990;28;20513;-73
2022/06/05 04:38:35;;;;;;;1.67;1.50;;;19.00;99.90;;;;;;5074243;28;20259;-71
2022/06/05 04:41:00;;;;;;;2.03;1.33;;;19.00;99.90;;;;;;5074182;28;20170;-71
2022/06/05 04:43:26;;;;;;;1.00;0.80;;;19.00;99.90;;;;;;5074103;28;20171;-71
2022/06/05 04:45:51;;;;;;;1.40;1.30;;;19.10;99.90;;;;;;5072454;28;20198;-74
2022/06/05 04:48:17;;;;;;;2.73;1.33;;;19.20;99.90;;;;;;5081235;28;20173;-72
2022/06/05 04:50:42;;;;;;;2.93;1.50;;;19.20;99.90;;;;;;5094015;28;20189;-72
2022/06/05 04:53:08;;;;;;;1.40;1.30;;;19.30;99.90;;;;;;5094236;28;20528;-73
2022/06/05 04:55:36;;;;;;;5.47;1.50;;;19.30;99.90;;;;;;5093412;28;20287;-74
2022/06/05 04:58:01;;;;;;;1.20;1.00;;;19.40;99.90;;;;;;5094220;28;20659;-72
2022/06/05 05:00:27;;;;;;;2.23;2.03;;;19.40;99.90;;;;;;5094150;28;20415;-72
2022/06/05 05:02:52;;;;;;;1.20;1.00;;;19.50;99.90;;;;;;5094054;28;20170;-73
2022/06/05 05:05:18;;;;;;;1.50;1.40;;;19.50;99.90;;;;;;5090971;28;20198;-72
2022/06/05 05:07:43;;;;;;;2.90;1.50;;;19.60;99.90;;;;;;5073805;28;20189;-71
2022/06/05 05:10:10;;;;;;;1.70;1.50;;;19.60;99.90;;;;;;5073784;28;20174;-72
2022/06/05 05:12:35;;;;;;;2.33;1.70;;;19.70;99.90;;;;;;5073864;28;20170;-71
2022/06/05 05:15:01;;;;;;;1.20;1.10;;;19.70;99.90;;;;;;5073759;28;21042;-71
2022/06/05 05:17:26;;;;;;;1.10;1.00;;;19.70;99.90;;;;;;5073464;28;20173;-74
2022/06/05 05:19:52;;;;;;;1.37;1.27;;;19.80;99.90;;;;;;5073520;28;20196;-71
2022/06/05 05:22:18;;;;;;;1.37;1.27;;;19.80;99.90;;;;;;5073479;28;20176;-71
2022/06/05 05:24:44;;;;;;;1.43;1.33;;;19.90;99.90;;;;;;5073064;28;20169;-70
2022/06/05 05:27:10;;;;;;;1.90;1.70;;;19.90;99.90;;;;;;5073387;28;20291;-71
2022/06/05 05:29:39;;;;;;;2.30;1.80;;;19.90;99.90;;;;;;5073225;28;20424;-71
2022/06/05 05:32:05;;;;;;;1.43;1.33;;;19.90;99.90;;;;;;5071952;28;20170;-71
2022/06/05 05:34:30;;;;;;;1.33;1.23;;;20.00;99.90;;;;;;5072870;28;20756;-71
2022/06/05 05:36:56;;;;;;;1.60;1.50;;;20.00;99.90;;;;;;5073016;28;20192;-70
2022/06/05 05:42:06;;;;;;;2.70;1.50;;;20.10;99.90;;;;;;5073102;28;20183;-72
2022/06/05 05:44:42;;;;;;;1.60;1.27;;;20.10;99.90;;;;;;5072873;28;20896;-74
2022/06/05 05:47:21;;;;;;;1.20;1.10;;;20.20;99.90;;;;;;5073035;28;20528;-71
2022/06/05 05:49:50;;;;;;;1.63;1.43;;;20.30;99.90;;;;;;5072951;28;20384;-71
2022/06/05 05:52:16;;;;;;;1.93;1.70;;;20.30;99.90;;;;;;5072888;28;20411;-76
2022/06/05 05:54:41;;;;;;;1.83;1.50;;;20.40;99.90;;;;;;5072347;28;20455;-70
2022/06/05 05:57:08;;;;;;;1.20;1.10;;;20.50;99.90;;;;;;5072808;28;20163;-70
2022/06/05 05:59:34;;;;;;;2.00;1.67;;;20.50;99.90;;;;;;5072777;28;20189;-72
2022/06/05 06:02:00;;;;;;;1.10;0.90;;;20.60;99.90;;;;;;5071307;28;20474;-75
2022/06/05 06:04:25;;;;;;;1.53;1.40;;;20.70;99.90;;;;;;5072439;28;20165;-71
2022/06/05 06:06:51;;;;;;;1.30;1.00;;;20.70;99.90;;;;;;5072543;28;20194;-71
2022/06/05 06:09:17;;;;;;;1.43;1.33;;;20.80;99.90;;;;;;5072583;28;20654;-72
2022/06/05 06:11:43;;;;;;;1.37;1.27;;;20.80;99.90;;;;;;5072585;28;20166;-71
2022/06/05 06:14:09;;;;;;;1.20;1.10;;;20.90;99.90;;;;;;5072507;28;20925;-72
2022/06/05 06:16:35;;;;;;;1.40;1.30;;;21.00;99.90;;;;;;5072152;28;20209;-74
2022/06/05 06:19:01;;;;;;;1.33;1.23;;;21.00;99.90;;;;;;5072444;28;20235;-72
2022/06/05 06:21:27;;;;;;;1.40;1.27;;;21.10;99.90;;;;;;5072357;28;20899;-73
2022/06/05 06:23:52;;;;;;;1.70;1.60;;;21.10;99.90;;;;;;5071040;28;20202;-73
2022/06/05 06:26:18;;;;;;;2.60;2.40;;;21.20;99.90;;;;;;5072091;28;20945;-73
2022/06/05 06:28:44;;;;;;;1.50;1.40;;;21.30;99.90;;;;;;5072245;28;20212;-72
2022/06/05 06:31:12;;;;;;;1.73;1.30;;;21.30;99.90;;;;;;5072217;28;20166;-72
2022/06/05 06:33:38;;;;;;;1.70;1.53;;;21.40;99.90;;;;;;5085658;28;20650;-72
2022/06/05 06:36:08;;;;;;;1.90;1.60;;;21.40;99.90;;;;;;5089109;28;20543;-71
2022/06/05 06:38:33;;;;;;;1.10;1.00;;;21.50;99.90;;;;;;5092309;28;20890;-72
2022/06/05 06:41:08;;;;;;;2.93;1.47;;;21.50;99.90;;;;;;5092359;28;20479;-74
2022/06/05 06:43:34;;;;;;;1.40;1.20;;;21.50;99.90;;;;;;5092408;28;20150;-71
2022/06/05 06:46:00;;;;;;;1.23;1.10;;;21.50;99.90;;;;;;5091963;28;20430;-71
2022/06/05 06:48:27;;;;;;;1.83;1.73;;;21.60;99.90;;;;;;5087477;28;20446;-71
2022/06/05 06:50:57;;;;;;;1.50;1.40;;;21.60;99.90;;;;;;5092227;28;20894;-71
2022/06/05 06:53:24;;;;;;;1.63;1.50;;;21.60;99.90;;;;;;5091628;28;20408;-75
2022/06/05 06:55:50;;;;;;;1.37;1.27;;;21.70;99.90;;;;;;5091772;28;20459;-76
2022/06/05 06:58:16;;;;;;;4.77;1.77;;;21.80;99.90;;;;;;5092131;28;20956;-72
2022/06/05 07:00:42;;;;;;;1.40;1.30;;;21.80;99.90;;;;;;5092182;28;20549;-73
2022/06/05 07:03:07;;;;;;;1.77;1.10;;;21.90;99.90;;;;;;5072934;28;20898;-74
2022/06/05 07:05:33;;;;;;;2.03;1.53;;;22.00;99.90;;;;;;5071554;28;20435;-71
2022/06/05 07:07:59;;;;;;;1.77;1.67;;;22.20;99.90;;;;;;5070596;28;20176;-72
2022/06/05 07:10:25;;;;;;;2.10;1.90;;;22.30;99.90;;;;;;5071782;28;20231;-72
2022/06/05 07:12:50;;;;;;;2.07;1.50;;;22.40;99.90;;;;;;5071805;28;20181;-72
2022/06/05 07:15:16;;;;;;;1.47;1.37;;;22.50;99.90;;;;;;5071402;28;20213;-77
2022/06/05 07:17:42;;;;;;;1.80;1.70;;;22.60;99.90;;;;;;5071724;28;20262;-75
2022/06/05 07:20:08;;;;;;;2.50;1.80;;;22.70;99.90;;;;;;5071751;28;20403;-72
2022/06/05 07:22:34;;;;;;;2.40;1.70;;;22.80;99.90;;;;;;5071665;28;20412;-71
2022/06/05 07:25:00;;;;;;;1.60;1.50;;;22.80;99.90;;;;;;5070196;28;20476;-71
2022/06/05 07:27:27;;;;;;;2.17;1.63;;;22.90;99.90;;;;;;5073927;28;20473;-72
2022/06/05 07:29:53;;;;;;;2.50;2.27;;;23.00;99.90;;;;;;5070262;28;20463;-73
2022/06/05 07:32:19;;;;;;;1.77;1.47;;;23.10;99.90;;;;;;5071677;28;20499;-74
2022/06/05 07:34:45;;;;;;;1.93;1.80;;;23.20;99.90;;;;;;5071433;28;20404;-72
2022/06/05 07:37:11;;;;;;;1.83;1.73;;;23.40;99.90;;;;;;5086699;28;20423;-75
2022/06/05 07:39:36;;;;;;;1.90;1.63;;;23.50;99.90;;;;;;5091721;28;20226;-71
2022/06/05 07:42:03;;;;;;;3.17;2.00;;;23.60;99.90;;;;;;5091658;28;20573;-71
2022/06/05 07:44:28;;;;;;;1.73;1.30;;;23.70;99.90;;;;;;5091559;28;20653;-75
2022/06/05 07:46:54;;;;;;;1.93;1.83;;;23.90;99.90;;;;;;5078487;28;20451;-71
2022/06/05 07:49:20;;;;;;;1.73;1.63;;;23.90;99.90;;;;;;5071429;28;20166;-72
2022/06/05 07:54:31;;;;;;;2.07;1.67;;;24.10;99.90;;;;;;5071276;28;20431;-72
2022/06/05 07:57:00;;;;;;;1.37;1.27;;;24.20;99.90;;;;;;5071197;28;20962;-71
2022/06/05 07:59:27;;;;;;;2.20;1.70;;;24.30;99.90;;;;;;5071358;28;20411;-74
2022/06/05 08:01:53;;;;;;;1.60;1.50;;;24.40;99.90;;;;;;5071352;28;20413;-76
2022/06/05 08:04:19;;;;;;;2.27;1.90;;;24.50;99.90;;;;;;5072191;28;20420;-75
2022/06/05 08:06:45;;;;;;;3.00;2.17;;;24.60;99.90;;;;;;5074843;28;20436;-71
2022/06/05 08:09:11;;;;;;;2.07;1.87;;;24.60;99.90;;;;;;5074805;28;20249;-72
2022/06/05 08:11:37;;;;;;;3.30;3.00;;;24.60;99.90;;;;;;5074831;28;20163;-74
2022/06/05 08:14:03;;;;;;;1.77;1.67;;;24.60;99.90;;;;;;5074711;28;20198;-72
2022/06/05 08:16:29;;;;;;;1.77;1.67;;;24.50;99.90;;;;;;5074574;28;20542;-72
2022/06/05 08:18:55;;;;;;;1.80;1.60;;;24.30;99.90;;;;;;5074672;28;20463;-72
2022/06/05 08:21:24;;;;;;;1.90;1.67;;;24.20;99.90;;;;;;5074645;28;20813;-71
2022/06/05 08:23:49;;;;;;;2.33;2.13;;;23.90;99.90;;;;;;5092727;28;20415;-72
2022/06/05 08:26:15;;;;;;;3.83;1.87;;;23.80;99.90;;;;;;5094488;28;20797;-72
2022/06/05 08:28:41;;;;;;;2.00;1.80;;;23.60;99.90;;;;;;5094760;28;20834;-72
2022/06/05 08:31:07;;;;;;;1.77;1.67;;;23.50;99.90;;;;;;5094730;28;20161;-73
2022/06/05 08:33:33;;;;;;;3.83;2.37;;;23.30;99.90;;;;;;5094167;28;20162;-72
2022/06/05 08:35:59;;;;;;;2.40;2.13;;;23.20;99.90;;;;;;5088371;28;20509;-71
2022/06/05 08:41:27;;;;;;;2.53;2.17;;;23.00;99.90;;;;;;5094695;28;20184;-73
2022/06/05 08:43:58;;;;;;;1.70;1.60;;;22.90;99.90;;;;;;5093143;28;20408;-75
2022/06/05 08:46:38;;;;;;;2.63;1.80;;;22.70;99.90;;;;;;5093293;28;20440;-71
2022/06/05 08:49:10;;;;;;;1.57;1.47;;;22.60;99.90;;;;;;5090874;28;20418;-72
2022/06/05 08:51:40;;;;;;;2.10;1.73;;;22.50;99.90;;;;;;5093641;28;20465;-73
2022/06/05 08:54:09;;;;;;;6.23;1.90;;;22.50;99.90;;;;;;5094188;28;20419;-72
2022/06/05 08:57:00;;;;;;;1.70;1.60;;;22.40;99.90;;;;;;5093121;28;20462;-73
2022/06/05 08:59:53;;;;;;;2.10;1.90;;;22.40;99.90;;;;;;5078168;28;20945;-72
2022/06/05 09:02:28;;;;;;;1.57;1.47;;;22.30;99.90;;;;;;5089629;28;20411;-72
2022/06/05 09:05:04;;;;;;;1.57;1.47;;;22.30;99.90;;;;;;5093958;28;20426;-72
2022/06/05 09:07:42;;;;;;;2.33;1.73;;;22.40;99.90;;;;;;5077239;28;20420;-73
2022/06/05 09:10:23;;;;;;;1.50;1.40;;;22.40;99.90;;;;;;5078485;28;20416;-74
2022/06/05 09:12:56;;;;;;;1.80;1.70;;;22.40;99.90;;;;;;5093905;28;20478;-72
2022/06/05 09:15:28;;;;;;;2.37;2.17;;;22.30;99.90;;;;;;5093189;28;20829;-72
2022/06/05 09:18:00;;;;;;;2.57;2.37;;;22.30;99.90;;;;;;5089527;28;20448;-72
2022/06/05 09:20:37;;;;;;;2.00;1.90;;;22.30;99.90;;;;;;5073671;28;20758;-74
2022/06/05 09:23:28;;;;;;;4.03;2.37;;;22.30;99.90;;;;;;5084402;28;20415;-70
2022/06/05 09:26:07;;;;;;;2.73;2.53;;;22.30;99.90;;;;;;5093351;28;20506;-72
2022/06/05 09:28:50;;;;;;;2.63;2.10;;;22.30;99.90;;;;;;5093636;28;20823;-71
2022/06/05 09:31:24;;;;;;;1.93;1.83;;;22.30;99.90;;;;;;5093679;28;20387;-70
2022/06/05 09:33:54;;;;;;;2.33;1.73;;;22.30;99.90;;;;;;5093095;28;20431;-74
2022/06/05 09:36:23;;;;;;;2.60;2.40;;;22.30;99.90;;;;;;5093107;28;20451;-74
2022/06/05 09:38:55;;;;;;;2.50;2.23;;;22.20;99.90;;;;;;5093351;28;20449;-71
2022/06/05 09:41:58;;;;;;;3.00;2.50;;;22.30;99.90;;;;;;5093349;28;20414;-71
2022/06/05 09:44:41;;;;;;;2.20;1.93;;;22.40;99.90;;;;;;5093023;28;20905;-71
2022/06/05 09:47:25;;;;;;;5.90;2.00;;;22.40;99.90;;;;;;5075625;28;20409;-71
2022/06/05 09:50:04;;;;;;;2.23;2.03;;;22.40;99.90;;;;;;5073607;28;20426;-76
2022/06/05 09:52:31;;;;;;;8.23;2.00;;;22.40;99.90;;;;;;5093263;28;20446;-69
2022/06/05 09:55:09;;;;;;;4.80;2.73;;;22.40;99.90;;;;;;5092073;28;20544;-70
2022/06/05 10:00:53;;;;;;;3.00;2.33;;;22.50;99.90;;;;;;5073050;28;20430;-71
2022/06/05 10:03:22;;;;;;;1.63;1.53;;;22.70;99.90;;;;;;5071444;28;20414;-73
2022/06/05 10:06:14;;;;;;;2.13;2.00;;;22.80;99.90;;;;;;5071182;28;20507;-73
2022/06/05 10:08:43;;;;;;;2.50;2.30;;;22.90;99.90;;;;;;5043930;28;20416;-71
2022/06/05 10:11:39;;;;;;;2.17;1.93;;;23.00;99.90;;;;;;5072530;28;20401;-71
2022/06/05 10:14:14;;;;;;;2.60;2.40;;;23.10;99.90;;;;;;5083621;28;20522;-71
2022/06/05 10:17:03;;;;;;;2.13;2.03;;;23.20;99.90;;;;;;5092592;28;20831;-71
2022/06/05 10:19:51;;;;;;;2.03;1.80;;;23.20;99.90;;;;;;5083122;28;20412;-70
2022/06/05 10:22:37;;;;;;;2.30;2.10;;;23.20;99.90;;;;;;5072470;28;20750;-75
2022/06/05 10:25:27;;;;;;;2.83;1.93;;;23.20;99.90;;;;;;5072026;28;20425;-71
2022/06/05 10:27:56;;;;;;;1.80;1.70;;;23.30;99.90;;;;;;5071695;28;20381;-71
2022/06/05 10:30:30;;;;;;;2.93;2.60;;;23.30;99.90;;;;;;5072679;28;20405;-71
2022/06/05 10:33:01;;;;;;;1.87;1.77;;;23.30;99.90;;;;;;5092441;28;20403;-71
2022/06/05 10:35:35;;;;;;;2.80;2.50;;;23.40;99.90;;;;;;5085388;28;20488;-70
2022/06/05 10:38:43;;;;;;;4.83;2.17;;;23.50;99.90;;;;;;5070922;28;20412;-71
2022/06/05 10:41:43;;;;;;;4.30;3.07;;;23.70;99.90;;;;;;5083900;28;20811;-71
2022/06/05 10:44:18;;;;;;;3.00;2.70;;;23.80;99.90;;;;;;5046174;28;20424;-71
2022/06/05 10:47:15;;;;;;;2.60;2.40;;;24.10;99.90;;;;;;5071990;28;20416;-73
2022/06/05 10:50:04;;;;;;;2.20;2.10;;;24.40;99.90;;;;;;5038946;28;20417;-72
2022/06/05 10:52:42;;;;;;;1.87;1.77;;;24.70;99.90;;;;;;5078452;28;20499;-71
2022/06/05 10:55:19;;;;;;;2.03;1.83;;;24.70;99.90;;;;;;5091642;28;20577;-70
2022/06/05 10:58:04;;;;;;;3.00;2.27;;;24.90;99.90;;;;;;5092468;28;20503;-71
2022/06/05 11:00:37;;;;;;;3.40;2.77;;;25.00;99.90;;;;;;5092260;28;20391;-71
2022/06/05 11:03:27;;;;;;;2.47;2.27;;;25.40;99.90;;;;;;5090750;28;20407;-71
2022/06/05 11:06:22;;;;;;;2.53;1.80;;;25.80;99.90;;;;;;5091346;28;20436;-71
2022/06/05 11:09:14;;;;;;;2.63;2.47;;;26.60;99.90;;;;;;5081288;28;20412;-71
2022/06/05 11:14:53;;;;;;;2.90;2.70;;;28.40;99.90;;;;;;5078239;28;20961;-71
2022/06/05 11:17:38;;;;;;;3.10;2.80;;;29.30;99.90;;;;;;5091689;28;20837;-71
2022/06/05 11:20:13;;;;;;;2.00;1.87;;;29.70;99.90;;;;;;5091886;28;20392;-72
2022/06/05 11:22:45;;;;;;;2.93;2.70;;;30.10;99.90;;;;;;5091963;28;20399;-71
2022/06/05 11:25:18;;;;;;;2.00;1.90;;;31.00;99.90;;;;;;5091274;28;20443;-75
2022/06/05 11:28:39;;;;;;;2.30;2.10;;;32.40;99.90;;;;;;5091885;28;20376;-72
2022/06/05 11:31:05;;;;;;;1.90;1.80;;;34.40;99.90;;;;;;4998100;28;20446;-76
2022/06/05 11:33:35;;;;;;;2.40;2.20;;;35.30;99.90;;;;;;5066529;28;20444;-71
2022/06/05 11:36:04;;;;;;;1.67;1.57;;;35.10;99.90;;;;;;5071778;28;20281;-71
2022/06/05 11:38:50;;;;;;;2.13;2.00;;;34.70;99.90;;;;;;5073222;28;20802;-76
2022/06/05 11:41:43;;;;;;;2.07;1.90;;;34.90;99.90;;;;;;5075553;28;20746;-72
2022/06/05 11:44:23;;;;;;;2.50;2.37;;;35.00;99.90;;;;;;5074076;28;20405;-73
2022/06/05 11:47:03;;;;;;;3.10;2.83;;;34.70;98.30;;;;;;5075701;28;20427;-72
2022/06/05 11:49:55;;;;;;;3.43;3.00;;;34.20;95.50;;;;;;5095492;28;20453;-72
2022/06/05 11:52:30;;;;;;;2.27;2.10;;;34.00;94.30;;;;;;5095098;28;20494;-72
2022/06/05 11:55:05;;;;;;;2.87;2.03;;;34.20;95.40;;;;;;5094902;28;20423;-77
2022/06/05 11:57:46;;;;;;;2.43;2.23;;;34.80;95.20;;;;;;5089317;28;20415;-72
2022/06/05 12:00:20;;;;;;;2.37;2.20;;;35.50;95.10;;;;;;5074611;28;20396;-72
2022/06/05 12:02:53;;;;;;;1.93;1.83;;;36.50;93.90;;;;;;5073641;28;20408;-73
2022/06/05 12:05:53;;;;;;;2.00;1.83;;;37.80;92.30;;;;;;5073405;28;20428;-72
2022/06/05 12:08:35;;;;;;;2.30;2.20;;;38.00;86.00;;;;;;5074761;28;20400;-75
2022/06/05 12:11:06;;;;;;;2.50;2.00;;;37.70;82.00;;;;;;5074915;28;20456;-75
2022/06/05 12:13:32;;;;;;;3.07;2.20;;;37.40;78.00;;;;;;5073494;28;20508;-72
2022/06/05 12:16:20;;;;;;;1.60;1.50;;;37.00;75.10;;;;;;5086459;28;20890;-72
2022/06/05 12:18:59;;;;;;;1.93;1.83;;;36.50;73.90;;;;;;5042833;28;20194;-71
2022/06/05 12:21:34;;;;;;;1.73;1.63;;;35.80;72.50;;;;;;5074611;28;20424;-72
2022/06/05 12:24:27;;;;;;;2.10;1.90;;;35.20;72.90;;;;;;5090627;28;20969;-72
2022/06/05 12:27:05;;;;;;;2.10;1.97;;;34.60;73.60;;;;;;5094425;28;20827;-76
2022/06/05 12:29:59;;;;;;;2.70;2.50;;;34.00;74.30;;;;;;5074514;28;20406;-76
2022/06/05 12:32:29;;;;;;;1.87;1.77;;;33.50;75.20;;;;;;5074470;28;20419;-72
2022/06/05 12:35:03;;;;;;;2.57;2.37;;;32.90;76.90;;;;;;5074298;28;20796;-71
2022/06/05 12:37:51;;;;;;;2.27;1.90;;;32.50;78.30;;;;;;5079170;28;20567;-71
2022/06/05 12:40:22;;;;;;;2.10;1.90;;;32.10;79.60;;;;;;5083815;28;20405;-72
2022/06/05 12:42:55;;;;;;;2.37;2.17;;;31.50;80.80;;;;;;5074358;28;20781;-74
2022/06/05 12:45:32;;;;;;;2.63;2.40;;;31.10;83.00;;;;;;5072702;28;20549;-72
2022/06/05 12:48:19;;;;;;;3.07;2.30;;;30.70;86.60;;;;;;5074604;28;20435;-72
2022/06/05 12:50:53;;;;;;;2.17;2.07;;;30.40;90.00;;;;;;5073406;28;20393;-72
2022/06/05 12:53:35;;;;;;;2.13;1.93;;;30.00;91.30;;;;;;5074090;28;20395;-72
2022/06/05 12:56:19;;;;;;;2.50;2.30;;;29.70;92.30;;;;;;5073626;28;20452;-73
2022/06/05 12:58:47;;;;;;;2.37;2.17;;;29.20;94.30;;;;;;5084981;28;20405;-71
2022/06/05 13:01:26;;;;;;;2.10;1.90;;;28.80;96.50;;;;;;5077279;28;20808;-71
2022/06/05 13:04:03;;;;;;;1.80;1.70;;;28.50;99.70;;;;;;5092831;28;20948;-72
2022/06/05 13:06:51;;;;;;;2.87;2.57;;;28.20;99.90;;;;;;5084699;28;20436;-72
2022/06/05 13:09:45;;;;;;;2.63;1.97;;;27.80;99.90;;;;;;5074711;28;20489;-72
2022/06/05 13:12:35;;;;;;;5.63;2.43;;;27.60;99.90;;;;;;5073556;28;20495;-73
2022/06/05 13:15:22;;;;;;;3.33;2.03;;;27.30;99.90;;;;;;5091903;28;20443;-73
2022/06/05 13:18:03;;;;;;;1.97;1.87;;;26.90;99.90;;;;;;5087512;28;20910;-72
2022/06/05 13:20:34;;;;;;;2.50;2.30;;;26.70;99.90;;;;;;5074690;28;20424;-72
2022/06/05 13:23:24;;;;;;;1.97;1.73;;;26.40;99.90;;;;;;5073609;28;20416;-71
2022/06/05 13:25:57;;;;;;;1.90;1.70;;;26.00;99.90;;;;;;5071820;28;20431;-72
2022/06/05 13:28:40;;;;;;;2.03;1.83;;;25.70;99.90;;;;;;5073348;28;20420;-72
2022/06/05 13:31:47;;;;;;;3.30;2.10;;;25.50;99.90;;;;;;5082071;28;20419;-72
2022/06/05 13:34:48;;;;;;;3.33;1.97;;;25.20;99.90;;;;;;5010995;28;20864;-73
2022/06/05 13:37:19;;;;;;;2.23;2.07;;;25.00;99.90;;;;;;5009931;28;20413;-71